sensor_id;sensor_type;location;lat;lon;timestamp;temperature;humidity
30288;DHT22;17103;48.316;11.558;2022-12-28T00:01:29;11.30;42.40
30288;DHT22;17103;48.316;11.558;2022-12-28T00:04:04;11.90;42.80
30288;DHT22;17103;48.316;11.558;2022-12-28T00:06:31;11.40;42.30
30288;DHT22;17103;48.316;11.558;2022-12-28T00:09:00;11.40;42.30
30288;DHT22;17103;48.316;11.558;2022-12-28T00:11:27;11.40;42.30
30288;DHT22;17103;48.316;11.558;2022-12-28T00:13:58;11.40;42.30
30288;DHT22;17103;48.316;11.558;2022-12-28T00:18:57;11.40;42.30
30288;DHT22;17103;48.316;11.558;2022-12-28T00:21:26;11.40;42.30
30288;DHT22;17103;48.316;11.558;2022-12-28T00:23:57;11.40;42.10
30288;DHT22;17103;48.316;11.558;2022-12-28T00:26:25;11.40;42.10
30288;DHT22;17103;48.316;11.558;2022-12-28T00:28:52;11.40;42.20
30288;DHT22;17103;48.316;11.558;2022-12-28T00:31:19;11.40;42.10
30288;DHT22;17103;48.316;11.558;2022-12-28T00:33:45;11.40;42.10
30288;DHT22;17103;48.316;11.558;2022-12-28T00:36:18;11.50;42.10
30288;DHT22;17103;48.316;11.558;2022-12-28T00:38:47;11.50;42.10
30288;DHT22;17103;48.316;11.558;2022-12-28T00:41:14;11.50;42.00
30288;DHT22;17103;48.316;11.558;2022-12-28T00:43:39;11.60;42.10
30288;DHT22;17103;48.316;11.558;2022-12-28T00:46:07;11.50;42.00
30288;DHT22;17103;48.316;11.558;2022-12-28T00:48:35;11.50;42.00
30288;DHT22;17103;48.316;11.558;2022-12-28T00:51:06;11.50;42.00
30288;DHT22;17103;48.316;11.558;2022-12-28T00:53:35;11.50;41.90
30288;DHT22;17103;48.316;11.558;2022-12-28T00:56:12;11.50;41.70
30288;DHT22;17103;48.316;11.558;2022-12-28T00:58:38;11.50;41.60
30288;DHT22;17103;48.316;11.558;2022-12-28T01:01:08;11.50;41.70
30288;DHT22;17103;48.316;11.558;2022-12-28T01:03:36;11.50;41.70
30288;DHT22;17103;48.316;11.558;2022-12-28T01:06:08;11.50;41.70
30288;DHT22;17103;48.316;11.558;2022-12-28T01:08:40;11.50;41.50
30288;DHT22;17103;48.316;11.558;2022-12-28T01:11:17;11.50;41.60
30288;DHT22;17103;48.316;11.558;2022-12-28T01:13:48;11.60;41.80
30288;DHT22;17103;48.316;11.558;2022-12-28T01:16:18;11.50;41.60
30288;DHT22;17103;48.316;11.558;2022-12-28T01:18:44;11.50;42.10
30288;DHT22;17103;48.316;11.558;2022-12-28T01:21:15;11.50;41.50
30288;DHT22;17103;48.316;11.558;2022-12-28T01:23:43;11.50;41.50
30288;DHT22;17103;48.316;11.558;2022-12-28T01:26:10;11.50;41.50
30288;DHT22;17103;48.316;11.558;2022-12-28T01:28:44;11.50;41.40
30288;DHT22;17103;48.316;11.558;2022-12-28T01:31:13;11.50;41.40
30288;DHT22;17103;48.316;11.558;2022-12-28T01:33:39;11.50;41.50
30288;DHT22;17103;48.316;11.558;2022-12-28T01:36:10;11.50;41.40
30288;DHT22;17103;48.316;11.558;2022-12-28T01:38:36;11.40;41.40
30288;DHT22;17103;48.316;11.558;2022-12-28T01:41:02;11.40;41.50
30288;DHT22;17103;48.316;11.558;2022-12-28T01:44:36;11.30;41.40
30288;DHT22;17103;48.316;11.558;2022-12-28T01:49:12;11.20;41.20
30288;DHT22;17103;48.316;11.558;2022-12-28T01:52:03;11.10;41.30
30288;DHT22;17103;48.316;11.558;2022-12-28T01:55:02;11.00;41.20
30288;DHT22;17103;48.316;11.558;2022-12-28T01:57:31;10.90;41.30
30288;DHT22;17103;48.316;11.558;2022-12-28T02:00:06;10.80;41.40
30288;DHT22;17103;48.316;11.558;2022-12-28T02:02:35;10.70;41.60
30288;DHT22;17103;48.316;11.558;2022-12-28T02:05:01;10.60;41.60
30288;DHT22;17103;48.316;11.558;2022-12-28T02:10:21;10.60;42.20
30288;DHT22;17103;48.316;11.558;2022-12-28T02:12:47;10.50;42.10
30288;DHT22;17103;48.316;11.558;2022-12-28T02:15:13;10.50;42.10
30288;DHT22;17103;48.316;11.558;2022-12-28T02:17:39;11.30;42.80
30288;DHT22;17103;48.316;11.558;2022-12-28T02:20:05;10.50;42.10
30288;DHT22;17103;48.316;11.558;2022-12-28T02:28:39;10.50;41.80
30288;DHT22;17103;48.316;11.558;2022-12-28T02:31:23;10.50;41.90
30288;DHT22;17103;48.316;11.558;2022-12-28T02:36:36;10.40;41.90
30288;DHT22;17103;48.316;11.558;2022-12-28T02:39:13;10.30;41.50
30288;DHT22;17103;48.316;11.558;2022-12-28T02:41:43;10.20;41.70
30288;DHT22;17103;48.316;11.558;2022-12-28T02:44:21;10.20;41.80
30288;DHT22;17103;48.316;11.558;2022-12-28T02:47:12;10.10;41.90
30288;DHT22;17103;48.316;11.558;2022-12-28T02:49:59;10.10;42.00
30288;DHT22;17103;48.316;11.558;2022-12-28T02:55:36;10.00;42.20
30288;DHT22;17103;48.316;11.558;2022-12-28T03:02:02;10.10;42.60
30288;DHT22;17103;48.316;11.558;2022-12-28T03:04:58;10.10;42.70
30288;DHT22;17103;48.316;11.558;2022-12-28T03:07:56;10.10;42.40
30288;DHT22;17103;48.316;11.558;2022-12-28T03:11:01;10.10;42.40
30288;DHT22;17103;48.316;11.558;2022-12-28T03:13:40;10.10;42.40
30288;DHT22;17103;48.316;11.558;2022-12-28T03:16:29;10.10;42.40
30288;DHT22;17103;48.316;11.558;2022-12-28T03:19:20;10.10;42.50
30288;DHT22;17103;48.316;11.558;2022-12-28T03:22:06;10.10;42.50
30288;DHT22;17103;48.316;11.558;2022-12-28T03:24:59;10.20;42.70
30288;DHT22;17103;48.316;11.558;2022-12-28T03:27:45;10.20;42.60
30288;DHT22;17103;48.316;11.558;2022-12-28T03:30:31;10.20;42.60
30288;DHT22;17103;48.316;11.558;2022-12-28T03:33:17;10.30;42.60
30288;DHT22;17103;48.316;11.558;2022-12-28T03:38:54;10.40;42.50
30288;DHT22;17103;48.316;11.558;2022-12-28T03:41:36;10.40;42.40
30288;DHT22;17103;48.316;11.558;2022-12-28T03:44:16;10.50;42.40
30288;DHT22;17103;48.316;11.558;2022-12-28T03:46:51;10.50;42.30
30288;DHT22;17103;48.316;11.558;2022-12-28T03:49:18;10.60;42.40
30288;DHT22;17103;48.316;11.558;2022-12-28T03:51:45;10.60;42.40
30288;DHT22;17103;48.316;11.558;2022-12-28T03:54:16;10.60;42.20
30288;DHT22;17103;48.316;11.558;2022-12-28T03:56:49;10.60;41.90
30288;DHT22;17103;48.316;11.558;2022-12-28T03:59:15;10.60;41.90
30288;DHT22;17103;48.316;11.558;2022-12-28T04:01:43;10.60;42.00
30288;DHT22;17103;48.316;11.558;2022-12-28T04:04:09;10.60;41.80
30288;DHT22;17103;48.316;11.558;2022-12-28T04:06:35;10.60;41.80
30288;DHT22;17103;48.316;11.558;2022-12-28T04:09:03;10.60;41.90
30288;DHT22;17103;48.316;11.558;2022-12-28T04:11:29;10.60;41.90
30288;DHT22;17103;48.316;11.558;2022-12-28T04:13:55;10.60;42.40
30288;DHT22;17103;48.316;11.558;2022-12-28T04:16:24;10.60;41.90
30288;DHT22;17103;48.316;11.558;2022-12-28T04:18:53;10.60;41.90
30288;DHT22;17103;48.316;11.558;2022-12-28T04:21:19;10.60;41.90
30288;DHT22;17103;48.316;11.558;2022-12-28T04:23:45;10.60;41.70
30288;DHT22;17103;48.316;11.558;2022-12-28T04:26:13;10.60;41.70
30288;DHT22;17103;48.316;11.558;2022-12-28T04:28:40;10.50;41.60
30288;DHT22;17103;48.316;11.558;2022-12-28T04:31:10;10.50;41.70
30288;DHT22;17103;48.316;11.558;2022-12-28T04:33:37;10.40;41.70
30288;DHT22;17103;48.316;11.558;2022-12-28T04:36:14;10.40;41.90
30288;DHT22;17103;48.316;11.558;2022-12-28T04:38:41;10.30;41.80
30288;DHT22;17103;48.316;11.558;2022-12-28T04:41:11;10.30;41.90
30288;DHT22;17103;48.316;11.558;2022-12-28T04:43:38;10.30;41.80
30288;DHT22;17103;48.316;11.558;2022-12-28T04:46:07;10.20;41.70
30288;DHT22;17103;48.316;11.558;2022-12-28T04:48:34;10.20;41.80
30288;DHT22;17103;48.316;11.558;2022-12-28T04:51:05;10.10;42.00
30288;DHT22;17103;48.316;11.558;2022-12-28T04:53:38;10.10;42.20
30288;DHT22;17103;48.316;11.558;2022-12-28T04:56:07;10.10;42.30
30288;DHT22;17103;48.316;11.558;2022-12-28T04:58:34;10.10;42.30
30288;DHT22;17103;48.316;11.558;2022-12-28T05:01:14;10.10;42.30
30288;DHT22;17103;48.316;11.558;2022-12-28T05:03:42;10.10;42.30
30288;DHT22;17103;48.316;11.558;2022-12-28T05:06:12;10.10;42.40
30288;DHT22;17103;48.316;11.558;2022-12-28T05:08:38;10.10;42.50
30288;DHT22;17103;48.316;11.558;2022-12-28T05:11:09;10.10;42.40
30288;DHT22;17103;48.316;11.558;2022-12-28T05:13:35;10.40;42.60
30288;DHT22;17103;48.316;11.558;2022-12-28T05:16:06;10.10;42.10
30288;DHT22;17103;48.316;11.558;2022-12-28T05:18:41;10.10;42.10
30288;DHT22;17103;48.316;11.558;2022-12-28T05:21:17;10.10;42.30
30288;DHT22;17103;48.316;11.558;2022-12-28T05:23:44;10.10;42.30
30288;DHT22;17103;48.316;11.558;2022-12-28T05:26:17;10.00;42.30
30288;DHT22;17103;48.316;11.558;2022-12-28T05:28:44;10.00;42.50
30288;DHT22;17103;48.316;11.558;2022-12-28T05:31:12;10.00;42.60
30288;DHT22;17103;48.316;11.558;2022-12-28T05:33:38;10.00;42.50
30288;DHT22;17103;48.316;11.558;2022-12-28T05:36:12;10.00;43.00
30288;DHT22;17103;48.316;11.558;2022-12-28T05:38:42;10.00;42.60
30288;DHT22;17103;48.316;11.558;2022-12-28T05:41:12;10.00;42.70
30288;DHT22;17103;48.316;11.558;2022-12-28T05:43:39;10.00;42.70
30288;DHT22;17103;48.316;11.558;2022-12-28T05:46:16;10.10;42.70
30288;DHT22;17103;48.316;11.558;2022-12-28T05:48:45;10.10;42.70
30288;DHT22;17103;48.316;11.558;2022-12-28T05:51:19;10.10;42.70
30288;DHT22;17103;48.316;11.558;2022-12-28T05:53:45;10.10;42.70
30288;DHT22;17103;48.316;11.558;2022-12-28T05:56:16;10.10;42.70
30288;DHT22;17103;48.316;11.558;2022-12-28T05:58:43;10.10;42.70
30288;DHT22;17103;48.316;11.558;2022-12-28T06:01:14;10.20;42.80
30288;DHT22;17103;48.316;11.558;2022-12-28T06:03:44;10.20;42.90
30288;DHT22;17103;48.316;11.558;2022-12-28T06:06:15;10.20;42.90
30288;DHT22;17103;48.316;11.558;2022-12-28T06:08:41;10.30;42.90
30288;DHT22;17103;48.316;11.558;2022-12-28T06:11:11;10.40;42.90
30288;DHT22;17103;48.316;11.558;2022-12-28T06:13:48;10.40;42.80
30288;DHT22;17103;48.316;11.558;2022-12-28T06:16:29;10.50;42.80
30288;DHT22;17103;48.316;11.558;2022-12-28T06:18:56;10.50;42.60
30288;DHT22;17103;48.316;11.558;2022-12-28T06:21:25;10.60;42.60
30288;DHT22;17103;48.316;11.558;2022-12-28T06:23:57;10.60;42.50
30288;DHT22;17103;48.316;11.558;2022-12-28T06:26:26;11.00;42.90
30288;DHT22;17103;48.316;11.558;2022-12-28T06:28:52;10.70;42.60
30288;DHT22;17103;48.316;11.558;2022-12-28T06:31:23;10.70;42.40
30288;DHT22;17103;48.316;11.558;2022-12-28T06:33:51;10.80;42.40
30288;DHT22;17103;48.316;11.558;2022-12-28T06:36:22;10.80;43.00
30288;DHT22;17103;48.316;11.558;2022-12-28T06:38:49;10.80;42.50
30288;DHT22;17103;48.316;11.558;2022-12-28T06:41:16;10.90;42.60
30288;DHT22;17103;48.316;11.558;2022-12-28T06:43:44;10.90;42.50
30288;DHT22;17103;48.316;11.558;2022-12-28T06:46:11;10.90;42.50
30288;DHT22;17103;48.316;11.558;2022-12-28T06:48:37;11.00;42.50
30288;DHT22;17103;48.316;11.558;2022-12-28T06:51:05;11.00;42.40
30288;DHT22;17103;48.316;11.558;2022-12-28T06:53:35;11.10;42.30
30288;DHT22;17103;48.316;11.558;2022-12-28T06:56:21;11.10;42.30
30288;DHT22;17103;48.316;11.558;2022-12-28T06:58:49;11.10;42.20
30288;DHT22;17103;48.316;11.558;2022-12-28T07:01:19;11.10;42.00
30288;DHT22;17103;48.316;11.558;2022-12-28T07:03:48;11.10;41.50
30288;DHT22;17103;48.316;11.558;2022-12-28T07:06:15;11.20;41.30
30288;DHT22;17103;48.316;11.558;2022-12-28T07:08:49;10.90;41.10
30288;DHT22;17103;48.316;11.558;2022-12-28T07:11:34;10.80;41.00
30288;DHT22;17103;48.316;11.558;2022-12-28T07:14:00;10.60;41.10
30288;DHT22;17103;48.316;11.558;2022-12-28T07:16:27;10.50;41.20
30288;DHT22;17103;48.316;11.558;2022-12-28T07:18:53;10.30;41.20
30288;DHT22;17103;48.316;11.558;2022-12-28T07:21:24;10.20;41.40
30288;DHT22;17103;48.316;11.558;2022-12-28T07:23:56;10.00;41.40
30288;DHT22;17103;48.316;11.558;2022-12-28T07:26:28;9.90;42.50
30288;DHT22;17103;48.316;11.558;2022-12-28T07:28:57;9.70;42.70
30288;DHT22;17103;48.316;11.558;2022-12-28T07:31:29;9.60;42.80
30288;DHT22;17103;48.316;11.558;2022-12-28T07:33:56;9.40;43.20
30288;DHT22;17103;48.316;11.558;2022-12-28T07:36:24;9.30;43.10
30288;DHT22;17103;48.316;11.558;2022-12-28T07:38:50;9.60;43.50
30288;DHT22;17103;48.316;11.558;2022-12-28T07:41:20;9.10;43.50
30288;DHT22;17103;48.316;11.558;2022-12-28T07:43:46;9.00;43.60
30288;DHT22;17103;48.316;11.558;2022-12-28T07:46:17;9.00;43.80
30288;DHT22;17103;48.316;11.558;2022-12-28T07:48:44;8.90;44.00
30288;DHT22;17103;48.316;11.558;2022-12-28T07:51:22;8.80;44.00
30288;DHT22;17103;48.316;11.558;2022-12-28T07:53:50;8.70;44.10
30288;DHT22;17103;48.316;11.558;2022-12-28T07:56:17;8.70;44.20
30288;DHT22;17103;48.316;11.558;2022-12-28T07:58:47;8.70;44.50
30288;DHT22;17103;48.316;11.558;2022-12-28T08:01:15;8.60;44.50
30288;DHT22;17103;48.316;11.558;2022-12-28T08:03:41;8.60;44.70
30288;DHT22;17103;48.316;11.558;2022-12-28T08:06:10;8.60;44.70
30288;DHT22;17103;48.316;11.558;2022-12-28T08:08:40;8.50;45.00
30288;DHT22;17103;48.316;11.558;2022-12-28T08:11:18;8.50;45.10
30288;DHT22;17103;48.316;11.558;2022-12-28T08:13:45;8.50;45.20
30288;DHT22;17103;48.316;11.558;2022-12-28T08:16:12;8.50;45.20
30288;DHT22;17103;48.316;11.558;2022-12-28T08:18:38;8.40;45.40
30288;DHT22;17103;48.316;11.558;2022-12-28T08:21:11;8.40;45.30
30288;DHT22;17103;48.316;11.558;2022-12-28T08:23:37;8.40;45.50
30288;DHT22;17103;48.316;11.558;2022-12-28T08:26:13;8.40;45.40
30288;DHT22;17103;48.316;11.558;2022-12-28T08:28:40;8.30;45.60
30288;DHT22;17103;48.316;11.558;2022-12-28T08:31:18;8.40;45.50
30288;DHT22;17103;48.316;11.558;2022-12-28T08:33:45;8.40;45.80
30288;DHT22;17103;48.316;11.558;2022-12-28T08:36:11;8.30;45.80
30288;DHT22;17103;48.316;11.558;2022-12-28T08:38:38;8.30;45.70
30288;DHT22;17103;48.316;11.558;2022-12-28T08:41:07;8.30;45.70
30288;DHT22;17103;48.316;11.558;2022-12-28T08:43:34;8.40;45.60
30288;DHT22;17103;48.316;11.558;2022-12-28T08:46:09;8.50;45.50
30288;DHT22;17103;48.316;11.558;2022-12-28T08:48:35;8.40;45.60
30288;DHT22;17103;48.316;11.558;2022-12-28T08:51:12;8.50;45.80
30288;DHT22;17103;48.316;11.558;2022-12-28T08:53:38;8.50;46.50
30288;DHT22;17103;48.316;11.558;2022-12-28T08:56:10;8.50;46.20
30288;DHT22;17103;48.316;11.558;2022-12-28T08:58:38;8.50;46.20
30288;DHT22;17103;48.316;11.558;2022-12-28T09:01:15;8.50;46.00
30288;DHT22;17103;48.316;11.558;2022-12-28T09:03:43;8.20;46.00
30288;DHT22;17103;48.316;11.558;2022-12-28T09:06:12;8.60;46.30
30288;DHT22;17103;48.316;11.558;2022-12-28T09:08:38;8.50;46.30
30288;DHT22;17103;48.316;11.558;2022-12-28T09:11:07;8.70;46.50
30288;DHT22;17103;48.316;11.558;2022-12-28T09:13:34;8.60;46.50
30288;DHT22;17103;48.316;11.558;2022-12-28T09:16:02;8.60;46.60
30288;DHT22;17103;48.316;11.558;2022-12-28T09:18:29;8.60;46.50
30288;DHT22;17103;48.316;11.558;2022-12-28T09:20:55;8.60;46.10
30288;DHT22;17103;48.316;11.558;2022-12-28T09:23:21;8.70;46.40
30288;DHT22;17103;48.316;11.558;2022-12-28T09:25:47;8.70;46.30
30288;DHT22;17103;48.316;11.558;2022-12-28T09:28:13;8.70;46.50
30288;DHT22;17103;48.316;11.558;2022-12-28T09:30:39;8.70;46.50
30288;DHT22;17103;48.316;11.558;2022-12-28T09:33:05;9.80;47.40
30288;DHT22;17103;48.316;11.558;2022-12-28T09:35:49;9.60;47.60
30288;DHT22;17103;48.316;11.558;2022-12-28T09:38:15;8.80;46.80
30288;DHT22;17103;48.316;11.558;2022-12-28T09:40:40;8.80;46.80
30288;DHT22;17103;48.316;11.558;2022-12-28T09:43:10;8.90;46.60
30288;DHT22;17103;48.316;11.558;2022-12-28T09:45:37;9.00;46.70
30288;DHT22;17103;48.316;11.558;2022-12-28T09:48:10;9.00;46.80
30288;DHT22;17103;48.316;11.558;2022-12-28T09:50:37;9.10;47.10
30288;DHT22;17103;48.316;11.558;2022-12-28T09:53:18;9.10;47.10
30288;DHT22;17103;48.316;11.558;2022-12-28T09:56:07;9.20;47.10
30288;DHT22;17103;48.316;11.558;2022-12-28T09:58:41;9.30;47.10
30288;DHT22;17103;48.316;11.558;2022-12-28T10:01:11;9.40;46.90
30288;DHT22;17103;48.316;11.558;2022-12-28T10:03:39;9.50;46.80
30288;DHT22;17103;48.316;11.558;2022-12-28T10:06:12;9.60;46.70
30288;DHT22;17103;48.316;11.558;2022-12-28T10:08:51;9.70;46.60
30288;DHT22;17103;48.316;11.558;2022-12-28T10:11:41;9.80;46.40
30288;DHT22;17103;48.316;11.558;2022-12-28T10:14:27;9.90;46.20
30288;DHT22;17103;48.316;11.558;2022-12-28T10:17:00;10.20;45.30
30288;DHT22;17103;48.316;11.558;2022-12-28T10:19:27;10.10;45.20
30288;DHT22;17103;48.316;11.558;2022-12-28T10:22:06;10.10;44.90
30288;DHT22;17103;48.316;11.558;2022-12-28T10:24:39;10.20;44.90
30288;DHT22;17103;48.316;11.558;2022-12-28T10:27:12;10.30;44.70
30288;DHT22;17103;48.316;11.558;2022-12-28T10:29:40;10.30;44.40
30288;DHT22;17103;48.316;11.558;2022-12-28T10:32:09;10.40;44.90
30288;DHT22;17103;48.316;11.558;2022-12-28T10:37:18;10.40;44.10
30288;DHT22;17103;48.316;11.558;2022-12-28T10:39:52;10.50;44.20
30288;DHT22;17103;48.316;11.558;2022-12-28T10:42:41;10.50;44.10
30288;DHT22;17103;48.316;11.558;2022-12-28T10:45:34;10.50;44.20
30288;DHT22;17103;48.316;11.558;2022-12-28T10:48:08;10.60;44.00
30288;DHT22;17103;48.316;11.558;2022-12-28T10:50:47;10.60;44.00
30288;DHT22;17103;48.316;11.558;2022-12-28T10:58:44;10.70;43.80
30288;DHT22;17103;48.316;11.558;2022-12-28T11:01:38;10.70;43.60
30288;DHT22;17103;48.316;11.558;2022-12-28T11:04:17;10.80;43.50
30288;DHT22;17103;48.316;11.558;2022-12-28T11:11:52;10.90;43.90
30288;DHT22;17103;48.316;11.558;2022-12-28T11:14:35;11.00;43.80
30288;DHT22;17103;48.316;11.558;2022-12-28T11:17:21;11.50;44.20
30288;DHT22;17103;48.316;11.558;2022-12-28T11:19:56;11.20;43.50
30288;DHT22;17103;48.316;11.558;2022-12-28T11:22:27;11.30;43.90
30288;DHT22;17103;48.316;11.558;2022-12-28T11:24:59;11.40;43.80
30288;DHT22;17103;48.316;11.558;2022-12-28T11:27:26;11.50;43.40
30288;DHT22;17103;48.316;11.558;2022-12-28T11:29:54;11.60;43.40
30288;DHT22;17103;48.316;11.558;2022-12-28T11:32:26;11.70;42.20
30288;DHT22;17103;48.316;11.558;2022-12-28T11:34:57;11.80;42.60
30288;DHT22;17103;48.316;11.558;2022-12-28T11:37:48;11.80;42.20
30288;DHT22;17103;48.316;11.558;2022-12-28T11:48:58;12.10;42.10
30288;DHT22;17103;48.316;11.558;2022-12-28T11:51:31;12.10;41.80
30288;DHT22;17103;48.316;11.558;2022-12-28T11:57:10;12.20;40.30
30288;DHT22;17103;48.316;11.558;2022-12-28T11:59:36;12.20;41.00
30288;DHT22;17103;48.316;11.558;2022-12-28T12:04:38;12.20;41.10
30288;DHT22;17103;48.316;11.558;2022-12-28T12:14:44;12.40;40.40
30288;DHT22;17103;48.316;11.558;2022-12-28T12:20:06;12.50;41.00
30288;DHT22;17103;48.316;11.558;2022-12-28T12:23:04;12.60;41.70
30288;DHT22;17103;48.316;11.558;2022-12-28T12:25:41;12.60;41.40
30288;DHT22;17103;48.316;11.558;2022-12-28T12:28:32;12.70;40.90
30288;DHT22;17103;48.316;11.558;2022-12-28T12:31:00;12.90;41.20
30288;DHT22;17103;48.316;11.558;2022-12-28T12:33:30;13.00;41.50
30288;DHT22;17103;48.316;11.558;2022-12-28T12:44:35;13.50;39.80
30288;DHT22;17103;48.316;11.558;2022-12-28T12:47:51;13.60;40.30
30288;DHT22;17103;48.316;11.558;2022-12-28T12:50:52;13.70;40.20
30288;DHT22;17103;48.316;11.558;2022-12-28T12:53:53;13.80;40.80
30288;DHT22;17103;48.316;11.558;2022-12-28T13:04:55;13.90;39.40
30288;DHT22;17103;48.316;11.558;2022-12-28T13:07:26;13.90;39.60
30288;DHT22;17103;48.316;11.558;2022-12-28T13:09:55;13.90;39.90
30288;DHT22;17103;48.316;11.558;2022-12-28T13:12:29;13.90;39.30
30288;DHT22;17103;48.316;11.558;2022-12-28T13:15:00;13.90;38.90
30288;DHT22;17103;48.316;11.558;2022-12-28T13:17:27;13.80;39.50
30288;DHT22;17103;48.316;11.558;2022-12-28T13:20:20;13.80;39.50
30288;DHT22;17103;48.316;11.558;2022-12-28T13:22:52;13.80;39.70
30288;DHT22;17103;48.316;11.558;2022-12-28T13:28:00;13.80;39.70
30288;DHT22;17103;48.316;11.558;2022-12-28T13:30:31;13.80;39.60
30288;DHT22;17103;48.316;11.558;2022-12-28T13:33:00;13.80;39.70
30288;DHT22;17103;48.316;11.558;2022-12-28T13:35:31;13.80;39.20
30288;DHT22;17103;48.316;11.558;2022-12-28T13:38:24;13.70;39.30
30288;DHT22;17103;48.316;11.558;2022-12-28T13:40:52;13.70;39.20
30288;DHT22;17103;48.316;11.558;2022-12-28T13:46:20;13.60;39.60
30288;DHT22;17103;48.316;11.558;2022-12-28T13:48:50;13.70;39.50
30288;DHT22;17103;48.316;11.558;2022-12-28T13:51:21;13.60;39.50
30288;DHT22;17103;48.316;11.558;2022-12-28T13:53:50;13.60;39.50
30288;DHT22;17103;48.316;11.558;2022-12-28T13:56:22;13.60;39.30
30288;DHT22;17103;48.316;11.558;2022-12-28T13:59:02;13.60;39.40
30288;DHT22;17103;48.316;11.558;2022-12-28T14:01:42;14.00;39.90
30288;DHT22;17103;48.316;11.558;2022-12-28T14:04:25;13.50;40.00
30288;DHT22;17103;48.316;11.558;2022-12-28T14:06:58;13.50;39.70
30288;DHT22;17103;48.316;11.558;2022-12-28T14:09:34;13.50;39.30
30288;DHT22;17103;48.316;11.558;2022-12-28T14:12:00;13.50;39.40
30288;DHT22;17103;48.316;11.558;2022-12-28T14:14:27;13.70;39.70
30288;DHT22;17103;48.316;11.558;2022-12-28T14:16:53;13.40;39.50
30288;DHT22;17103;48.316;11.558;2022-12-28T14:19:21;13.50;39.40
30288;DHT22;17103;48.316;11.558;2022-12-28T14:21:47;13.40;39.50
30288;DHT22;17103;48.316;11.558;2022-12-28T14:24:14;13.40;39.60
30288;DHT22;17103;48.316;11.558;2022-12-28T14:26:48;13.40;39.80
30288;DHT22;17103;48.316;11.558;2022-12-28T14:29:20;14.20;40.00
30288;DHT22;17103;48.316;11.558;2022-12-28T14:31:47;13.40;39.40
30288;DHT22;17103;48.316;11.558;2022-12-28T14:34:22;13.20;39.30
30288;DHT22;17103;48.316;11.558;2022-12-28T14:36:50;13.30;39.50
30288;DHT22;17103;48.316;11.558;2022-12-28T14:42:00;13.30;39.20
30288;DHT22;17103;48.316;11.558;2022-12-28T14:44:38;13.20;39.10
30288;DHT22;17103;48.316;11.558;2022-12-28T14:49:59;13.20;39.00
30288;DHT22;17103;48.316;11.558;2022-12-28T14:52:47;13.10;38.90
30288;DHT22;17103;48.316;11.558;2022-12-28T14:57:49;13.00;39.20
30288;DHT22;17103;48.316;11.558;2022-12-28T15:00:21;13.00;39.40
30288;DHT22;17103;48.316;11.558;2022-12-28T15:02:47;13.00;39.20
30288;DHT22;17103;48.316;11.558;2022-12-28T15:07:58;13.00;38.90
30288;DHT22;17103;48.316;11.558;2022-12-28T15:10:45;13.00;39.10
30288;DHT22;17103;48.316;11.558;2022-12-28T15:13:27;13.00;39.10
30288;DHT22;17103;48.316;11.558;2022-12-28T15:15:53;12.90;39.20
30288;DHT22;17103;48.316;11.558;2022-12-28T15:18:26;12.90;39.20
30288;DHT22;17103;48.316;11.558;2022-12-28T15:20:54;12.90;39.30
30288;DHT22;17103;48.316;11.558;2022-12-28T15:23:27;12.90;39.30
30288;DHT22;17103;48.316;11.558;2022-12-28T15:26:10;12.90;39.00
30288;DHT22;17103;48.316;11.558;2022-12-28T15:28:38;12.90;38.90
30288;DHT22;17103;48.316;11.558;2022-12-28T15:31:08;12.90;39.30
30288;DHT22;17103;48.316;11.558;2022-12-28T15:33:43;12.90;39.20
30288;DHT22;17103;48.316;11.558;2022-12-28T15:36:13;12.90;39.10
30288;DHT22;17103;48.316;11.558;2022-12-28T15:38:42;12.90;39.30
30288;DHT22;17103;48.316;11.558;2022-12-28T15:41:23;12.90;39.20
30288;DHT22;17103;48.316;11.558;2022-12-28T15:44:09;12.90;39.20
30288;DHT22;17103;48.316;11.558;2022-12-28T15:46:35;12.90;39.30
30288;DHT22;17103;48.316;11.558;2022-12-28T15:49:05;12.90;39.20
30288;DHT22;17103;48.316;11.558;2022-12-28T15:51:35;12.80;39.10
30288;DHT22;17103;48.316;11.558;2022-12-28T15:54:17;12.90;39.10
30288;DHT22;17103;48.316;11.558;2022-12-28T15:56:54;12.90;38.90
30288;DHT22;17103;48.316;11.558;2022-12-28T15:59:23;12.80;38.90
30288;DHT22;17103;48.316;11.558;2022-12-28T16:01:53;12.80;38.80
30288;DHT22;17103;48.316;11.558;2022-12-28T16:04:26;12.80;38.80
30288;DHT22;17103;48.316;11.558;2022-12-28T16:06:52;12.80;38.60
30288;DHT22;17103;48.316;11.558;2022-12-28T16:09:23;12.80;38.70
30288;DHT22;17103;48.316;11.558;2022-12-28T16:11:50;12.80;38.50
30288;DHT22;17103;48.316;11.558;2022-12-28T16:14:34;12.70;38.30
30288;DHT22;17103;48.316;11.558;2022-12-28T16:16:59;12.70;38.20
30288;DHT22;17103;48.316;11.558;2022-12-28T16:19:25;13.20;38.60
30288;DHT22;17103;48.316;11.558;2022-12-28T16:21:54;12.60;38.10
30288;DHT22;17103;48.316;11.558;2022-12-28T16:24:26;12.60;37.90
30288;DHT22;17103;48.316;11.558;2022-12-28T16:26:54;12.60;37.80
30288;DHT22;17103;48.316;11.558;2022-12-28T16:29:19;12.50;37.70
30288;DHT22;17103;48.316;11.558;2022-12-28T16:31:45;12.50;37.70
30288;DHT22;17103;48.316;11.558;2022-12-28T16:34:16;12.40;37.50
30288;DHT22;17103;48.316;11.558;2022-12-28T16:36:51;12.40;37.50
30288;DHT22;17103;48.316;11.558;2022-12-28T16:39:28;12.30;36.80
30288;DHT22;17103;48.316;11.558;2022-12-28T16:41:56;12.30;37.10
30288;DHT22;17103;48.316;11.558;2022-12-28T16:44:25;12.30;37.00
30288;DHT22;17103;48.316;11.558;2022-12-28T16:46:57;12.20;36.90
30288;DHT22;17103;48.316;11.558;2022-12-28T16:49:25;12.20;37.10
30288;DHT22;17103;48.316;11.558;2022-12-28T16:51:51;12.10;36.90
30288;DHT22;17103;48.316;11.558;2022-12-28T16:54:20;12.10;36.90
30288;DHT22;17103;48.316;11.558;2022-12-28T16:56:46;12.00;36.50
30288;DHT22;17103;48.316;11.558;2022-12-28T16:59:27;11.90;36.50
30288;DHT22;17103;48.316;11.558;2022-12-28T17:01:54;11.90;36.90
30288;DHT22;17103;48.316;11.558;2022-12-28T17:04:24;11.90;37.00
30288;DHT22;17103;48.316;11.558;2022-12-28T17:06:52;12.20;37.00
30288;DHT22;17103;48.316;11.558;2022-12-28T17:09:21;11.80;36.50
30288;DHT22;17103;48.316;11.558;2022-12-28T17:11:48;11.80;36.90
30288;DHT22;17103;48.316;11.558;2022-12-28T17:14:17;11.80;37.10
30288;DHT22;17103;48.316;11.558;2022-12-28T17:16:44;11.70;36.70
30288;DHT22;17103;48.316;11.558;2022-12-28T17:19:10;11.70;36.90
30288;DHT22;17103;48.316;11.558;2022-12-28T17:21:36;12.10;37.30
30288;DHT22;17103;48.316;11.558;2022-12-28T17:24:02;11.60;36.80
30288;DHT22;17103;48.316;11.558;2022-12-28T17:26:35;11.60;36.60